Time;durP1;ratioP1;P1;durP2;ratioP2;P2;SDS_P1;SDS_P2;PMS_P1;PMS_P2;Temp;Humidity;BMP_temperature;BMP_pressure;BME280_temperature;BME280_humidity;BME280_pressure;Samples;Min_cycle;Max_cycle;Signal;HPM_P1;HPM_P2
2021/08/17 00:00:13;;;;;;;9.02;2.83;;;;;;;;;;4359501;32;20218;-77
2021/08/17 00:03:02;;;;;;;8.10;2.40;;;;;;;;;;4359795;33;20659;-77
2021/08/17 00:05:24;;;;;;;9.40;2.97;;;;;;;;;;4347346;33;20163;-77
2021/08/17 00:07:55;;;;;;;9.25;2.80;;;;;;;;;;4360051;32;20234;-77
2021/08/17 00:10:23;;;;;;;8.32;2.47;;;;;;;;;;4359523;32;20163;-77
2021/08/17 00:12:51;;;;;;;8.88;2.45;;;;;;;;;;4346872;33;20226;-77
2021/08/17 00:15:25;;;;;;;7.97;2.78;;;;;;;;;;4359127;32;20167;-77
2021/08/17 00:17:51;;;;;;;11.35;2.50;;;;;;;;;;4359939;33;20182;-77
2021/08/17 00:20:16;;;;;;;9.57;2.80;;;;;;;;;;4359267;32;20466;-77
2021/08/17 00:22:41;;;;;;;7.55;2.95;;;;;;;;;;4359444;33;20667;-77
2021/08/17 00:25:18;;;;;;;;;;;;;;;;;;;;;
2021/08/17 00:27:46;;;;;;;9.80;2.40;;;;;;;;;;4348642;33;20630;-77
2021/08/17 00:30:15;;;;;;;7.40;2.78;;;;;;;;;;4359494;32;20156;-77
2021/08/17 00:32:40;;;;;;;11.68;3.35;;;;;;;;;;4359630;32;20151;-77
2021/08/17 00:35:06;;;;;;;9.68;3.20;;;;;;;;;;4359402;32;20285;-77
2021/08/17 00:37:35;;;;;;;12.02;3.10;;;;;;;;;;4358975;32;20465;-77
2021/08/17 00:40:00;;;;;;;11.05;2.60;;;;;;;;;;4359416;32;20210;-77
2021/08/17 00:42:33;;;;;;;7.87;3.17;;;;;;;;;;4359167;32;20159;-77
2021/08/17 00:45:02;;;;;;;10.18;2.80;;;;;;;;;;4358930;32;20147;-77
2021/08/17 00:47:47;;;;;;;10.43;3.35;;;;;;;;;;4358732;32;20586;-77
2021/08/17 00:50:12;;;;;;;10.23;2.83;;;;;;;;;;4348148;33;20213;-77
2021/08/17 00:52:38;;;;;;;10.88;2.80;;;;;;;;;;4358672;33;20155;-77
2021/08/17 00:55:04;;;;;;;12.27;2.45;;;;;;;;;;4358664;32;20663;-77
2021/08/17 00:57:40;;;;;;;;;;;;;;;;;;;;;
2021/08/17 01:00:05;;;;;;;11.43;2.30;;;;;;;;;;4354245;33;20159;-77
2021/08/17 01:02:31;;;;;;;7.85;2.53;;;;;;;;;;4349705;33;20159;-77
2021/08/17 01:05:00;;;;;;;6.32;2.50;;;;;;;;;;4349041;33;20163;-77
2021/08/17 01:07:25;;;;;;;6.62;2.30;;;;;;;;;;4360543;32;20159;-77
2021/08/17 01:09:50;;;;;;;6.40;2.28;;;;;;;;;;4348671;33;20246;-77
2021/08/17 01:12:15;;;;;;;6.72;2.58;;;;;;;;;;4348520;33;20167;-77
2021/08/17 01:14:44;;;;;;;7.37;2.60;;;;;;;;;;4348374;33;20222;-77
2021/08/17 01:17:10;;;;;;;9.40;2.72;;;;;;;;;;4348730;33;20197;-77
2021/08/17 01:19:36;;;;;;;6.57;2.62;;;;;;;;;;4348409;33;20562;-78
2021/08/17 01:22:01;;;;;;;7.57;2.65;;;;;;;;;;4360743;32;20181;-77
2021/08/17 01:24:42;;;;;;;7.47;2.20;;;;;;;;;;4361191;33;20178;-77
2021/08/17 01:27:08;;;;;;;10.48;2.87;;;;;;;;;;4348367;33;20163;-77
2021/08/17 01:29:37;;;;;;;7.37;2.60;;;;;;;;;;4360673;32;20604;-77
2021/08/17 01:32:02;;;;;;;6.60;2.35;;;;;;;;;;4348237;33;20528;-77
2021/08/17 01:34:30;;;;;;;8.50;2.72;;;;;;;;;;4360733;33;20162;-77
2021/08/17 01:36:56;;;;;;;8.63;2.87;;;;;;;;;;4348191;33;20221;-77
2021/08/17 01:39:21;;;;;;;8.20;2.40;;;;;;;;;;4348527;33;20567;-77
2021/08/17 01:41:47;;;;;;;9.85;2.25;;;;;;;;;;4361695;32;20163;-77
2021/08/17 01:44:13;;;;;;;6.50;2.25;;;;;;;;;;4348126;33;20210;-77
2021/08/17 01:46:39;;;;;;;6.47;2.62;;;;;;;;;;4360436;32;20258;-77
2021/08/17 01:49:05;;;;;;;8.23;2.60;;;;;;;;;;4360297;33;20167;-77
2021/08/17 01:51:32;;;;;;;7.78;2.78;;;;;;;;;;4348285;33;20186;-77
2021/08/17 01:53:58;;;;;;;6.53;2.30;;;;;;;;;;4348107;33;20183;-77
2021/08/17 01:56:30;;;;;;;7.40;3.30;;;;;;;;;;4348250;33;20167;-77
2021/08/17 01:59:04;;;;;;;10.45;2.70;;;;;;;;;;4360293;32;20167;-77
2021/08/17 02:01:36;;;;;;;9.50;2.80;;;;;;;;;;4348281;33;20175;-77
2021/08/17 02:04:02;;;;;;;8.45;2.70;;;;;;;;;;4347808;33;20226;-77
2021/08/17 02:06:29;;;;;;;5.72;2.65;;;;;;;;;;4348334;33;20198;-77
2021/08/17 02:08:55;;;;;;;9.13;3.05;;;;;;;;;;4347652;33;20178;-77
2021/08/17 02:11:21;;;;;;;10.52;3.10;;;;;;;;;;4348232;33;20163;-77
2021/08/17 02:13:47;;;;;;;8.93;3.08;;;;;;;;;;4347619;33;20159;-77
2021/08/17 02:16:14;;;;;;;8.85;3.00;;;;;;;;;;4347687;33;20198;-77
2021/08/17 02:18:40;;;;;;;7.55;2.58;;;;;;;;;;4346779;33;20205;-77
2021/08/17 02:21:05;;;;;;;6.10;2.90;;;;;;;;;;4348131;33;20187;-77
2021/08/17 02:23:31;;;;;;;9.13;2.62;;;;;;;;;;4348263;33;20155;-77
2021/08/17 02:25:56;;;;;;;6.60;2.67;;;;;;;;;;4359901;32;20170;-78
2021/08/17 02:28:22;;;;;;;9.10;3.00;;;;;;;;;;4347466;33;20159;-77
2021/08/17 02:30:51;;;;;;;5.55;2.62;;;;;;;;;;4347292;33;20167;-77
2021/08/17 02:33:16;;;;;;;7.95;2.75;;;;;;;;;;4359924;32;20163;-77
2021/08/17 02:35:42;;;;;;;6.82;2.75;;;;;;;;;;4360279;32;20178;-77
2021/08/17 02:38:08;;;;;;;8.48;3.00;;;;;;;;;;4359663;32;20162;-77
2021/08/17 02:41:01;;;;;;;6.28;2.80;;;;;;;;;;4359692;32;20225;-77
2021/08/17 02:43:26;;;;;;;6.95;3.00;;;;;;;;;;4360736;33;20189;-77
2021/08/17 02:45:52;;;;;;;9.10;2.90;;;;;;;;;;4359829;32;20167;-77
2021/08/17 02:48:21;;;;;;;10.80;3.55;;;;;;;;;;4347094;33;20221;-77
2021/08/17 02:50:47;;;;;;;7.97;2.80;;;;;;;;;;4359445;32;20167;-77
2021/08/17 02:53:20;;;;;;;6.62;2.70;;;;;;;;;;4359573;32;20353;-77
2021/08/17 02:55:45;;;;;;;13.55;3.05;;;;;;;;;;4347322;33;20187;-77
2021/08/17 02:58:19;;;;;;;6.75;2.90;;;;;;;;;;4347616;33;20159;-77
2021/08/17 03:00:47;;;;;;;8.05;2.60;;;;;;;;;;4347409;33;20232;-77
2021/08/17 03:06:04;;;;;;;8.13;3.00;;;;;;;;;;4361575;32;20169;-77
2021/08/17 03:08:29;;;;;;;6.62;3.28;;;;;;;;;;4359720;32;20167;-78
2021/08/17 03:11:00;;;;;;;5.50;3.05;;;;;;;;;;4346471;33;20155;-77
2021/08/17 03:13:26;;;;;;;10.20;3.50;;;;;;;;;;4359891;32;20543;-77
2021/08/17 03:15:53;;;;;;;6.75;2.80;;;;;;;;;;4359144;32;20171;-77
2021/08/17 03:18:18;;;;;;;10.25;3.62;;;;;;;;;;4347191;33;20177;-77
2021/08/17 03:20:53;;;;;;;7.87;3.37;;;;;;;;;;4359444;32;20163;-77
2021/08/17 03:23:43;;;;;;;7.95;3.58;;;;;;;;;;4347079;33;20166;-77
2021/08/17 03:26:31;;;;;;;9.60;3.55;;;;;;;;;;4359099;33;20221;-77
2021/08/17 03:28:55;;;;;;;5.40;3.37;;;;;;;;;;4350052;32;20167;-77
2021/08/17 03:31:21;;;;;;;7.07;3.75;;;;;;;;;;4346890;33;20233;-77
2021/08/17 03:33:46;;;;;;;10.98;3.85;;;;;;;;;;4358948;33;20155;-77
2021/08/17 03:36:12;;;;;;;10.07;4.18;;;;;;;;;;4346724;33;20182;-76
2021/08/17 03:38:38;;;;;;;7.72;3.72;;;;;;;;;;4347094;33;20186;-77
2021/08/17 03:41:03;;;;;;;10.85;4.43;;;;;;;;;;4358907;33;20202;-77
2021/08/17 03:43:31;;;;;;;8.35;3.60;;;;;;;;;;4358915;33;20592;-77
2021/08/17 03:45:56;;;;;;;11.15;4.40;;;;;;;;;;4358954;33;20181;-77
2021/08/17 03:48:22;;;;;;;10.40;5.05;;;;;;;;;;4358933;33;20173;-77
2021/08/17 03:50:47;;;;;;;12.60;4.55;;;;;;;;;;4346651;33;20163;-77
2021/08/17 03:53:15;;;;;;;13.07;4.70;;;;;;;;;;4358939;33;20217;-77
2021/08/17 03:55:41;;;;;;;10.43;4.53;;;;;;;;;;4358875;33;20179;-77
2021/08/17 03:58:06;;;;;;;8.93;4.07;;;;;;;;;;4360761;33;20157;-77
2021/08/17 04:00:33;;;;;;;13.80;4.95;;;;;;;;;;4346231;33;20205;-77
2021/08/17 04:02:59;;;;;;;12.95;5.15;;;;;;;;;;4358729;33;20646;-77
2021/08/17 04:05:24;;;;;;;13.07;5.20;;;;;;;;;;4359041;33;20171;-77
2021/08/17 04:07:50;;;;;;;16.15;6.00;;;;;;;;;;4359253;33;20215;-76
2021/08/17 04:10:15;;;;;;;11.68;5.00;;;;;;;;;;4359149;33;20205;-76
2021/08/17 04:12:46;;;;;;;16.60;6.18;;;;;;;;;;4346772;33;20186;-77
2021/08/17 04:15:11;;;;;;;13.85;5.35;;;;;;;;;;4346606;33;20189;-76
2021/08/17 04:17:37;;;;;;;11.57;5.50;;;;;;;;;;4346722;33;20159;-77
2021/08/17 04:20:23;;;;;;;14.68;5.62;;;;;;;;;;4359174;33;20331;-77
2021/08/17 04:22:54;;;;;;;15.77;6.87;;;;;;;;;;4346768;33;20163;-77
2021/08/17 04:25:21;;;;;;;12.48;6.03;;;;;;;;;;4346246;33;20577;-78
2021/08/17 04:27:50;;;;;;;19.02;6.18;;;;;;;;;;4346395;33;20186;-78
2021/08/17 04:30:15;;;;;;;18.12;6.85;;;;;;;;;;4346212;33;20631;-78
2021/08/17 04:35:29;;;;;;;17.48;6.95;;;;;;;;;;4346797;33;20186;-76
2021/08/17 04:37:55;;;;;;;16.50;7.05;;;;;;;;;;4358848;33;20171;-76
2021/08/17 04:40:23;;;;;;;19.67;7.78;;;;;;;;;;4346186;33;20155;-76
2021/08/17 04:42:48;;;;;;;19.00;7.15;;;;;;;;;;4348263;33;20155;-76
2021/08/17 04:45:43;;;;;;;;;;;;;;;;;;;;;
2021/08/17 04:48:08;;;;;;;19.42;7.45;;;;;;;;;;4359544;33;20151;-77
2021/08/17 04:53:40;;;;;;;18.40;7.20;;;;;;;;;;4316630;33;20219;-78
2021/08/17 04:56:11;;;;;;;18.02;7.62;;;;;;;;;;4360444;33;20155;-78
2021/08/17 04:59:02;;;;;;;17.17;7.32;;;;;;;;;;4349772;33;20186;-79
2021/08/17 05:01:27;;;;;;;19.75;7.95;;;;;;;;;;4353711;33;20247;-78
2021/08/17 05:04:07;;;;;;;19.60;8.05;;;;;;;;;;4359200;32;20198;-78
2021/08/17 05:06:33;;;;;;;18.73;7.97;;;;;;;;;;4360515;33;20349;-79
2021/08/17 05:08:58;;;;;;;19.87;8.60;;;;;;;;;;4346634;33;20222;-78
2021/08/17 05:11:32;;;;;;;20.25;9.00;;;;;;;;;;4346556;33;20164;-78
2021/08/17 05:13:58;;;;;;;18.33;7.95;;;;;;;;;;4346236;33;20150;-78
2021/08/17 05:16:24;;;;;;;20.00;8.80;;;;;;;;;;4358847;33;20229;-78
2021/08/17 05:18:59;;;;;;;;;;;;;;;;;;;;;
2021/08/17 05:21:31;;;;;;;19.98;8.80;;;;;;;;;;4316041;33;20139;-78
2021/08/17 05:23:56;;;;;;;20.58;8.27;;;;;;;;;;4358511;32;20155;-77
2021/08/17 05:26:22;;;;;;;21.60;9.60;;;;;;;;;;4358231;32;20163;-77
2021/08/17 05:28:47;;;;;;;21.87;9.13;;;;;;;;;;4345774;33;20155;-78
2021/08/17 05:31:22;;;;;;;19.77;7.72;;;;;;;;;;4358036;32;20601;-77
2021/08/17 05:33:47;;;;;;;18.77;8.45;;;;;;;;;;4346125;33;20222;-77
2021/08/17 05:36:13;;;;;;;24.58;9.50;;;;;;;;;;4357944;32;20205;-76
2021/08/17 05:38:38;;;;;;;26.17;8.88;;;;;;;;;;4358437;32;20229;-77
2021/08/17 05:41:05;;;;;;;21.12;8.88;;;;;;;;;;4358619;32;20513;-77
2021/08/17 05:43:34;;;;;;;15.88;8.13;;;;;;;;;;4345521;33;20155;-77
2021/08/17 05:46:03;;;;;;;18.02;8.57;;;;;;;;;;4357968;32;20234;-76
2021/08/17 05:48:28;;;;;;;22.73;8.15;;;;;;;;;;4357677;33;20148;-76
2021/08/17 05:50:53;;;;;;;19.30;7.85;;;;;;;;;;4358531;32;20473;-76
2021/08/17 05:53:22;;;;;;;17.83;8.00;;;;;;;;;;4356903;32;20159;-77
2021/08/17 05:55:47;;;;;;;21.95;9.43;;;;;;;;;;4346243;33;20182;-77
2021/08/17 05:58:14;;;;;;;20.75;8.63;;;;;;;;;;4357634;33;20600;-77
2021/08/17 06:00:39;;;;;;;22.23;9.13;;;;;;;;;;4357972;32;20224;-76
2021/08/17 06:03:05;;;;;;;23.77;9.45;;;;;;;;;;4333004;33;20477;-77
2021/08/17 06:05:31;;;;;;;22.05;8.10;;;;;;;;;;4357643;32;20186;-78
2021/08/17 06:07:57;;;;;;;23.87;8.63;;;;;;;;;;4358074;33;20174;-78
2021/08/17 06:10:22;;;;;;;20.52;8.35;;;;;;;;;;4357419;33;20678;-77
2021/08/17 06:12:47;;;;;;;20.75;8.13;;;;;;;;;;4357721;32;20597;-76
2021/08/17 06:15:15;;;;;;;21.58;8.20;;;;;;;;;;4357802;32;20242;-77
2021/08/17 06:17:40;;;;;;;25.27;10.65;;;;;;;;;;4357240;33;20179;-77
2021/08/17 06:20:06;;;;;;;22.70;10.05;;;;;;;;;;4357471;32;20156;-77
2021/08/17 06:22:32;;;;;;;27.90;10.30;;;;;;;;;;4357373;32;20262;-77
2021/08/17 06:24:57;;;;;;;20.42;9.60;;;;;;;;;;4356943;32;20500;-77
2021/08/17 06:27:23;;;;;;;25.45;8.55;;;;;;;;;;4350638;32;20241;-76
2021/08/17 06:29:48;;;;;;;22.33;9.20;;;;;;;;;;4357425;33;20147;-76
2021/08/17 06:32:13;;;;;;;23.40;9.35;;;;;;;;;;4357257;32;20569;-77
2021/08/17 06:34:39;;;;;;;22.45;9.48;;;;;;;;;;4357388;32;20438;-77
2021/08/17 06:37:04;;;;;;;22.92;9.57;;;;;;;;;;4357050;33;20152;-76
2021/08/17 06:39:30;;;;;;;19.40;9.52;;;;;;;;;;4357322;32;20463;-77
2021/08/17 06:41:55;;;;;;;28.95;10.57;;;;;;;;;;4357196;32;20229;-76
2021/08/17 06:44:20;;;;;;;18.42;8.07;;;;;;;;;;4357429;33;20569;-76
2021/08/17 06:46:46;;;;;;;24.48;8.65;;;;;;;;;;4344978;33;20160;-78
2021/08/17 06:49:14;;;;;;;24.33;8.25;;;;;;;;;;4344881;33;20163;-76
2021/08/17 06:51:39;;;;;;;25.45;8.77;;;;;;;;;;4344978;33;20154;-77
2021/08/17 06:54:06;;;;;;;18.05;7.72;;;;;;;;;;4345730;33;20194;-77
2021/08/17 06:56:31;;;;;;;19.17;7.70;;;;;;;;;;4344491;33;20179;-77
2021/08/17 06:58:58;;;;;;;18.73;7.93;;;;;;;;;;4357183;32;20239;-77
2021/08/17 07:01:23;;;;;;;16.42;7.32;;;;;;;;;;4356787;33;20659;-76
2021/08/17 07:03:49;;;;;;;17.37;8.00;;;;;;;;;;4344392;33;20177;-77
2021/08/17 07:06:14;;;;;;;18.55;7.75;;;;;;;;;;4344836;33;20242;-77
2021/08/17 07:08:39;;;;;;;20.20;6.87;;;;;;;;;;4356628;33;20152;-76
2021/08/17 07:11:06;;;;;;;13.98;6.12;;;;;;;;;;4356886;32;20182;-76
2021/08/17 07:13:32;;;;;;;13.65;6.43;;;;;;;;;;4356827;32;20175;-76
2021/08/17 07:15:57;;;;;;;17.58;7.60;;;;;;;;;;4344188;33;20627;-78
2021/08/17 07:18:23;;;;;;;20.55;6.78;;;;;;;;;;4344265;33;20194;-77
2021/08/17 07:20:48;;;;;;;15.50;5.82;;;;;;;;;;4356539;33;20167;-76
2021/08/17 07:23:23;;;;;;;16.83;6.90;;;;;;;;;;4344720;33;20163;-77
2021/08/17 07:25:48;;;;;;;15.98;5.85;;;;;;;;;;4344310;33;20192;-77
2021/08/17 07:28:13;;;;;;;16.87;6.93;;;;;;;;;;4344495;33;20590;-77
2021/08/17 07:30:39;;;;;;;17.27;5.90;;;;;;;;;;4356689;32;20159;-77
2021/08/17 07:33:05;;;;;;;13.10;6.32;;;;;;;;;;4345741;33;20132;-77
2021/08/17 07:35:32;;;;;;;15.45;6.03;;;;;;;;;;4344241;33;20179;-77
2021/08/17 07:38:00;;;;;;;18.17;6.62;;;;;;;;;;4343932;33;20503;-77
2021/08/17 07:40:25;;;;;;;17.02;5.97;;;;;;;;;;4343887;33;20186;-77
2021/08/17 07:42:50;;;;;;;17.12;6.10;;;;;;;;;;4344662;33;20151;-77
2021/08/17 07:45:16;;;;;;;16.80;5.75;;;;;;;;;;4344216;33;20242;-74
2021/08/17 07:47:42;;;;;;;12.48;5.18;;;;;;;;;;4345288;33;20238;-77
2021/08/17 07:50:08;;;;;;;10.60;5.20;;;;;;;;;;4343952;33;20197;-74
2021/08/17 07:52:35;;;;;;;12.02;5.45;;;;;;;;;;4343776;33;20209;-77
2021/08/17 07:55:01;;;;;;;14.10;5.90;;;;;;;;;;4344078;33;20647;-77
2021/08/17 07:57:34;;;;;;;10.07;5.28;;;;;;;;;;4344847;33;20164;-77
2021/08/17 08:00:10;;;;;;;9.80;5.50;;;;;;;;;;4344239;33;20519;-77
2021/08/17 08:02:35;;;;;;;13.65;5.93;;;;;;;;;;4344103;33;20155;-77
2021/08/17 08:05:01;;;;;;;13.65;5.65;;;;;;;;;;4343948;33;20156;-77
2021/08/17 08:07:31;;;;;;;12.40;5.43;;;;;;;;;;4344105;33;20152;-77
2021/08/17 08:10:03;;;;;;;13.40;5.37;;;;;;;;;;4344695;33;20170;-77
2021/08/17 08:12:39;;;;;;;14.45;5.93;;;;;;;;;;4344494;33;20578;-77
2021/08/17 08:15:05;;;;;;;10.52;4.80;;;;;;;;;;4344530;33;20182;-75
2021/08/17 08:17:34;;;;;;;13.38;4.93;;;;;;;;;;4345720;33;20151;-77
2021/08/17 08:20:02;;;;;;;13.38;5.65;;;;;;;;;;4347614;33;20181;-76
2021/08/17 08:22:31;;;;;;;10.20;5.20;;;;;;;;;;4348681;32;20132;-77
2021/08/17 08:25:02;;;;;;;13.60;5.28;;;;;;;;;;4346596;33;20643;-76
2021/08/17 08:27:27;;;;;;;14.13;5.57;;;;;;;;;;4346893;33;20198;-77
2021/08/17 08:29:55;;;;;;;10.27;4.80;;;;;;;;;;4346617;33;20194;-76
2021/08/17 08:32:21;;;;;;;9.18;4.70;;;;;;;;;;4359029;32;20507;-77
2021/08/17 08:34:46;;;;;;;8.48;4.18;;;;;;;;;;4347364;33;20178;-77
2021/08/17 08:37:11;;;;;;;10.90;4.00;;;;;;;;;;4347627;33;20124;-76
2021/08/17 08:39:43;;;;;;;9.20;4.18;;;;;;;;;;4346198;33;20201;-77
2021/08/17 08:42:09;;;;;;;11.60;4.15;;;;;;;;;;4347155;33;20234;-78
2021/08/17 08:44:34;;;;;;;12.00;4.15;;;;;;;;;;4346352;33;20160;-77
2021/08/17 08:47:03;;;;;;;9.77;4.18;;;;;;;;;;4346694;33;20194;-77
2021/08/17 08:49:34;;;;;;;9.90;3.97;;;;;;;;;;4346862;33;20230;-77
2021/08/17 08:52:06;;;;;;;8.95;4.15;;;;;;;;;;4346007;33;20603;-77
2021/08/17 08:54:36;;;;;;;10.60;4.25;;;;;;;;;;4346350;33;20151;-76
2021/08/17 08:57:12;;;;;;;;;;;;;;;;;;;;;
2021/08/17 08:59:41;;;;;;;11.05;4.55;;;;;;;;;;4343610;33;20197;-77
2021/08/17 09:02:30;;;;;;;8.18;4.20;;;;;;;;;;4348872;33;20167;-77
2021/08/17 09:05:10;;;;;;;;;;;;;;;;;;;;;
2021/08/17 09:08:15;;;;;;;12.00;4.30;;;;;;;;;;4287178;33;20133;-77
2021/08/17 09:11:02;;;;;;;;;;;;;;;;;;;;;
2021/08/17 09:13:37;;;;;;;8.52;4.03;;;;;;;;;;4361997;33;20500;-78
2021/08/17 09:16:31;;;;;;;;;;;;;;;;;;;;;
2021/08/17 09:19:06;;;;;;;12.68;4.18;;;;;;;;;;4361804;32;20568;-78
2021/08/17 09:30:21;;;;;;;8.43;3.58;;;;;;;;;;4307466;33;20179;-75
2021/08/17 09:32:50;;;;;;;9.93;3.28;;;;;;;;;;4358853;32;20143;-77
2021/08/17 09:35:19;;;;;;;10.05;3.45;;;;;;;;;;4348504;33;20259;-77
2021/08/17 09:38:02;;;;;;;7.60;3.42;;;;;;;;;;4348132;33;20233;-78
2021/08/17 09:40:31;;;;;;;8.27;3.37;;;;;;;;;;4346007;33;20198;-78
2021/08/17 09:43:10;;;;;;;10.00;4.03;;;;;;;;;;4357837;32;20190;-77
2021/08/17 09:45:36;;;;;;;9.02;3.60;;;;;;;;;;4345524;33;20167;-77
2021/08/17 09:48:10;;;;;;;8.25;3.58;;;;;;;;;;4347059;32;20187;-78
2021/08/17 09:50:38;;;;;;;9.70;3.45;;;;;;;;;;4347842;32;20457;-78
2021/08/17 09:53:16;;;;;;;7.75;3.90;;;;;;;;;;4360216;32;20263;-78
2021/08/17 09:55:49;;;;;;;6.97;3.70;;;;;;;;;;4348763;33;20258;-77
2021/08/17 09:58:18;;;;;;;10.90;3.83;;;;;;;;;;4347165;33;20162;-78
2021/08/17 10:00:50;;;;;;;10.07;3.97;;;;;;;;;;4347454;33;20612;-77
2021/08/17 10:03:19;;;;;;;8.02;3.37;;;;;;;;;;4347863;33;20492;-78
2021/08/17 10:05:45;;;;;;;9.52;3.67;;;;;;;;;;4343427;33;20232;-77
2021/08/17 10:08:13;;;;;;;7.82;3.83;;;;;;;;;;4357179;32;20142;-77
2021/08/17 10:10:39;;;;;;;7.45;3.95;;;;;;;;;;4359382;32;20182;-78
2021/08/17 10:13:27;;;;;;;10.85;4.60;;;;;;;;;;4357157;32;20155;-79
2021/08/17 10:16:11;;;;;;;6.62;4.45;;;;;;;;;;4347376;33;20151;-77
2021/08/17 10:18:56;;;;;;;9.50;5.40;;;;;;;;;;4364296;32;20511;-77
2021/08/17 10:21:32;;;;;;;8.85;4.80;;;;;;;;;;4359721;32;20201;-78
2021/08/17 10:27:32;;;;;;;;;;;;;;;;;;;;;
2021/08/17 10:30:29;;;;;;;7.75;4.55;;;;;;;;;;4299486;33;20153;-76
2021/08/17 10:33:03;;;;;;;7.68;4.20;;;;;;;;;;4304363;33;20203;-76
2021/08/17 10:35:39;;;;;;;11.18;5.07;;;;;;;;;;4349777;32;20189;-76
2021/08/17 10:47:34;;;;;;;10.98;5.75;;;;;;;;;;4357840;32;20185;-76
2021/08/17 10:50:08;;;;;;;11.45;5.62;;;;;;;;;;4354418;32;20244;-75
2021/08/17 10:52:39;;;;;;;11.38;5.75;;;;;;;;;;4351975;32;20875;-76
2021/08/17 10:55:42;;;;;;;9.60;5.50;;;;;;;;;;4354575;32;20561;-75
2021/08/17 11:10:54;;;;;;;8.93;5.57;;;;;;;;;;4318369;33;20198;-77
2021/08/17 11:13:26;;;;;;;12.93;6.57;;;;;;;;;;4283012;33;20195;-77
2021/08/17 11:16:14;;;;;;;16.58;7.07;;;;;;;;;;4292570;33;20168;-77
2021/08/17 11:18:56;;;;;;;16.50;9.82;;;;;;;;;;4313404;33;20163;-78
2021/08/17 11:21:35;;;;;;;11.60;7.70;;;;;;;;;;4321968;33;20194;-76
2021/08/17 11:24:07;;;;;;;21.65;10.07;;;;;;;;;;4316974;33;20201;-78
2021/08/17 11:26:32;;;;;;;14.85;8.90;;;;;;;;;;4371125;32;20163;-78
2021/08/17 11:28:57;;;;;;;12.90;8.40;;;;;;;;;;4357500;32;20189;-76
2021/08/17 11:31:25;;;;;;;18.15;10.05;;;;;;;;;;4346484;32;20170;-76
2021/08/17 11:34:10;;;;;;;17.08;9.50;;;;;;;;;;4359197;32;20151;-77
2021/08/17 11:36:35;;;;;;;16.52;10.38;;;;;;;;;;4344507;33;20166;-77
2021/08/17 11:39:20;;;;;;;18.58;10.68;;;;;;;;;;4351519;33;20175;-78
2021/08/17 11:41:45;;;;;;;15.95;9.75;;;;;;;;;;4350844;32;20158;-79
2021/08/17 11:44:17;;;;;;;15.98;10.38;;;;;;;;;;4344157;33;20212;-77
2021/08/17 11:46:43;;;;;;;20.67;10.07;;;;;;;;;;4346378;33;20152;-77
2021/08/17 11:49:37;;;;;;;18.35;9.60;;;;;;;;;;4337849;33;20224;-78
2021/08/17 11:52:04;;;;;;;19.02;9.77;;;;;;;;;;4339125;33;20166;-71
2021/08/17 11:54:42;;;;;;;20.02;11.20;;;;;;;;;;4356379;33;20170;-77
2021/08/17 11:57:11;;;;;;;18.27;10.50;;;;;;;;;;4368009;32;20182;-78
2021/08/17 11:59:38;;;;;;;16.80;9.90;;;;;;;;;;4360957;32;20148;-77
2021/08/17 12:02:06;;;;;;;10.25;7.05;;;;;;;;;;4374005;32;20171;-76
2021/08/17 12:04:32;;;;;;;15.23;10.05;;;;;;;;;;4352722;33;20197;-76
2021/08/17 12:07:14;;;;;;;12.88;7.82;;;;;;;;;;4351952;33;20509;-77
2021/08/17 12:09:41;;;;;;;12.98;8.48;;;;;;;;;;4350698;32;20224;-80
2021/08/17 12:12:07;;;;;;;11.80;7.97;;;;;;;;;;4346227;32;20257;-77
2021/08/17 12:14:33;;;;;;;14.77;8.60;;;;;;;;;;4364341;32;20194;-77
2021/08/17 12:17:02;;;;;;;13.07;7.97;;;;;;;;;;4361259;33;20570;-76
2021/08/17 12:19:28;;;;;;;10.43;7.65;;;;;;;;;;4360433;32;20229;-76
2021/08/17 12:21:53;;;;;;;13.52;7.65;;;;;;;;;;4342446;33;20190;-76
2021/08/17 12:24:27;;;;;;;13.30;7.97;;;;;;;;;;4347926;33;20193;-77
2021/08/17 12:26:54;;;;;;;13.82;8.68;;;;;;;;;;4350952;32;20782;-77
2021/08/17 12:29:23;;;;;;;14.98;8.43;;;;;;;;;;4355712;32;20167;-75
2021/08/17 12:31:51;;;;;;;11.98;7.10;;;;;;;;;;4345172;33;20182;-77
2021/08/17 12:34:17;;;;;;;13.40;8.10;;;;;;;;;;4361479;32;20537;-78
2021/08/17 12:36:55;;;;;;;13.85;8.50;;;;;;;;;;4342776;33;20271;-79
2021/08/17 12:39:36;;;;;;;10.77;6.22;;;;;;;;;;4362088;32;20234;-74
2021/08/17 12:42:06;;;;;;;13.18;7.25;;;;;;;;;;4337131;33;20147;-76
2021/08/17 12:44:37;;;;;;;9.18;5.80;;;;;;;;;;4333736;33;20160;-76
2021/08/17 12:47:04;;;;;;;7.32;5.30;;;;;;;;;;4337376;33;20615;-78
2021/08/17 12:49:43;;;;;;;9.85;5.70;;;;;;;;;;4355315;32;20179;-76
2021/08/17 12:52:38;;;;;;;13.98;7.20;;;;;;;;;;4367681;32;20596;-78
2021/08/17 12:55:11;;;;;;;10.63;5.40;;;;;;;;;;4339987;33;20190;-79
2021/08/17 12:57:38;;;;;;;8.02;4.65;;;;;;;;;;4374248;32;20155;-78
2021/08/17 13:00:04;;;;;;;5.10;3.85;;;;;;;;;;4343027;32;20623;-76
2021/08/17 13:02:35;;;;;;;6.93;4.25;;;;;;;;;;4334680;33;20186;-75
2021/08/17 13:05:03;;;;;;;7.75;4.65;;;;;;;;;;4348316;33;20489;-74
2021/08/17 13:07:33;;;;;;;7.70;4.12;;;;;;;;;;4348908;33;20226;-77
2021/08/17 13:09:59;;;;;;;5.87;3.55;;;;;;;;;;4350253;33;20206;-76
2021/08/17 13:12:26;;;;;;;6.68;3.85;;;;;;;;;;4359951;32;20170;-77
2021/08/17 13:14:51;;;;;;;6.87;3.37;;;;;;;;;;4352043;32;20247;-74
2021/08/17 13:17:27;;;;;;;5.45;3.50;;;;;;;;;;4336119;32;20261;-77
2021/08/17 13:19:55;;;;;;;8.10;3.53;;;;;;;;;;4347742;33;20179;-77
2021/08/17 13:22:45;;;;;;;5.30;3.12;;;;;;;;;;4348394;33;20190;-77
2021/08/17 13:25:13;;;;;;;3.55;2.30;;;;;;;;;;4359699;32;20178;-77
2021/08/17 13:27:39;;;;;;;5.10;2.70;;;;;;;;;;4361467;32;20147;-78
2021/08/17 13:30:05;;;;;;;3.03;2.17;;;;;;;;;;4347264;33;20235;-78
2021/08/17 13:32:43;;;;;;;5.60;2.37;;;;;;;;;;4334109;33;20222;-74
2021/08/17 13:35:18;;;;;;;3.92;2.72;;;;;;;;;;4345361;33;20167;-75
2021/08/17 13:37:45;;;;;;;3.70;2.60;;;;;;;;;;4340449;33;20271;-76
2021/08/17 13:40:14;;;;;;;3.50;2.58;;;;;;;;;;4343940;33;20186;-77
2021/08/17 13:43:18;;;;;;;4.00;2.35;;;;;;;;;;4344178;33;20174;-77
2021/08/17 13:48:34;;;;;;;2.03;1.83;;;;;;;;;;4303515;33;20220;-79
2021/08/17 13:51:07;;;;;;;3.37;2.12;;;;;;;;;;4333452;33;20167;-79
2021/08/17 13:53:43;;;;;;;2.30;2.00;;;;;;;;;;4350587;33;20186;-76
2021/08/17 13:56:08;;;;;;;4.00;2.20;;;;;;;;;;4360109;33;20244;-76
2021/08/17 13:58:40;;;;;;;4.90;1.90;;;;;;;;;;4335144;33;20532;-77
2021/08/17 14:01:34;;;;;;;3.33;2.00;;;;;;;;;;4339925;33;20617;-76
2021/08/17 14:03:59;;;;;;;3.03;1.75;;;;;;;;;;4331583;33;20230;-77
2021/08/17 14:06:34;;;;;;;;;;;;;;;;;;;;;
2021/08/17 14:09:39;;;;;;;4.28;2.12;;;;;;;;;;4332319;33;20186;-77
2021/08/17 14:12:15;;;;;;;3.97;2.40;;;;;;;;;;4329330;33;20241;-76
2021/08/17 14:14:40;;;;;;;3.15;2.12;;;;;;;;;;4316664;33;20261;-76
2021/08/17 14:17:08;;;;;;;2.33;1.67;;;;;;;;;;4330565;33;20160;-76
2021/08/17 14:19:40;;;;;;;3.47;1.87;;;;;;;;;;4357945;32;20577;-76
2021/08/17 14:22:21;;;;;;;4.47;2.53;;;;;;;;;;4358020;32;20182;-76
2021/08/17 14:24:46;;;;;;;3.87;2.30;;;;;;;;;;4344779;33;20152;-77
2021/08/17 14:27:12;;;;;;;3.95;2.22;;;;;;;;;;4343231;33;20182;-77
2021/08/17 14:29:38;;;;;;;4.43;2.20;;;;;;;;;;4357040;33;20155;-74
2021/08/17 14:32:04;;;;;;;8.75;3.05;;;;;;;;;;4353116;32;20267;-77
2021/08/17 14:34:29;;;;;;;3.33;2.20;;;;;;;;;;4333746;33;20658;-76
2021/08/17 14:37:14;;;;;;;4.22;2.45;;;;;;;;;;4356786;33;20635;-77
2021/08/17 14:39:42;;;;;;;6.18;2.87;;;;;;;;;;4345247;32;20266;-76
2021/08/17 14:42:08;;;;;;;6.12;3.00;;;;;;;;;;4349080;33;20147;-77
2021/08/17 14:44:39;;;;;;;7.65;3.40;;;;;;;;;;4341273;33;20190;-77
2021/08/17 14:47:04;;;;;;;4.95;3.40;;;;;;;;;;4350397;32;20277;-76
2021/08/17 14:49:30;;;;;;;5.65;3.65;;;;;;;;;;4342341;33;20465;-77
2021/08/17 14:52:04;;;;;;;7.68;3.83;;;;;;;;;;4341637;32;20156;-76
2021/08/17 14:54:29;;;;;;;9.88;3.47;;;;;;;;;;4335445;33;20155;-76
2021/08/17 14:56:55;;;;;;;5.28;2.72;;;;;;;;;;4329796;33;20152;-76
2021/08/17 14:59:21;;;;;;;4.15;2.00;;;;;;;;;;4342444;33;20194;-77
2021/08/17 15:01:46;;;;;;;4.55;2.00;;;;;;;;;;4332839;33;20649;-77
2021/08/17 15:04:13;;;;;;;4.40;2.10;;;;;;;;;;4333189;33;20238;-78
2021/08/17 15:06:40;;;;;;;5.87;1.90;;;;;;;;;;4343238;33;20238;-77
2021/08/17 15:09:07;;;;;;;3.83;1.80;;;;;;;;;;4344460;33;20186;-76
2021/08/17 15:11:34;;;;;;;2.90;1.20;;;;;;;;;;4344506;33;20174;-76
2021/08/17 15:14:00;;;;;;;2.67;1.55;;;;;;;;;;4344603;33;20182;-76
2021/08/17 15:16:28;;;;;;;2.25;1.33;;;;;;;;;;4344845;33;20144;-76
2021/08/17 15:22:01;;;;;;;2.40;1.37;;;;;;;;;;4337164;33;20159;-76
2021/08/17 15:24:37;;;;;;;2.65;1.45;;;;;;;;;;4344349;33;20271;-75
2021/08/17 15:27:06;;;;;;;2.17;1.45;;;;;;;;;;4344663;33;20178;-76
2021/08/17 15:29:36;;;;;;;5.60;1.65;;;;;;;;;;4344588;33;20167;-76
2021/08/17 15:32:15;;;;;;;5.12;1.45;;;;;;;;;;4344474;33;20167;-78
2021/08/17 15:34:43;;;;;;;2.30;1.37;;;;;;;;;;4344680;33;20155;-77
2021/08/17 15:37:09;;;;;;;4.85;1.40;;;;;;;;;;4345615;33;20136;-75
2021/08/17 15:39:34;;;;;;;4.50;2.12;;;;;;;;;;4344213;33;20238;-76
2021/08/17 15:42:09;;;;;;;2.62;0.98;;;;;;;;;;4344108;33;20593;-77
2021/08/17 15:44:44;;;;;;;3.22;1.20;;;;;;;;;;4344690;33;20639;-75
2021/08/17 15:47:10;;;;;;;5.28;1.70;;;;;;;;;;4344142;33;20158;-76
2021/08/17 15:49:37;;;;;;;1.48;1.00;;;;;;;;;;4344307;33;20210;-77